sensor_id;sensor_type;location;lat;lon;timestamp;temperature;humidity
45283;DHT22;31023;44.994;1.796;2023-02-28T00:00:07;-0.30;80.80
45283;DHT22;31023;44.994;1.796;2023-02-28T00:02:40;-0.30;80.80
45283;DHT22;31023;44.994;1.796;2023-02-28T00:05:07;-0.30;80.70
45283;DHT22;31023;44.994;1.796;2023-02-28T00:07:34;-0.30;81.00
45283;DHT22;31023;44.994;1.796;2023-02-28T00:10:00;-0.30;80.90
45283;DHT22;31023;44.994;1.796;2023-02-28T00:12:26;-0.30;80.60
45283;DHT22;31023;44.994;1.796;2023-02-28T00:14:52;-0.20;80.60
45283;DHT22;31023;44.994;1.796;2023-02-28T00:17:18;-0.20;80.70
45283;DHT22;31023;44.994;1.796;2023-02-28T00:19:47;-0.30;80.80
45283;DHT22;31023;44.994;1.796;2023-02-28T00:22:15;-0.30;80.90
45283;DHT22;31023;44.994;1.796;2023-02-28T00:24:41;-0.30;80.60
45283;DHT22;31023;44.994;1.796;2023-02-28T00:27:06;-0.30;81.00
45283;DHT22;31023;44.994;1.796;2023-02-28T00:29:32;-0.20;80.30
45283;DHT22;31023;44.994;1.796;2023-02-28T00:31:58;-0.30;80.40
45283;DHT22;31023;44.994;1.796;2023-02-28T00:34:24;-0.30;80.50
45283;DHT22;31023;44.994;1.796;2023-02-28T00:36:49;-0.20;80.50
45283;DHT22;31023;44.994;1.796;2023-02-28T00:39:16;-0.20;80.50
45283;DHT22;31023;44.994;1.796;2023-02-28T00:41:42;-0.30;80.90
45283;DHT22;31023;44.994;1.796;2023-02-28T00:44:07;-0.30;81.00
45283;DHT22;31023;44.994;1.796;2023-02-28T00:46:33;-0.40;80.80
45283;DHT22;31023;44.994;1.796;2023-02-28T00:48:59;-0.40;80.90
45283;DHT22;31023;44.994;1.796;2023-02-28T00:51:24;-0.40;81.00
45283;DHT22;31023;44.994;1.796;2023-02-28T00:53:50;-0.50;81.20
45283;DHT22;31023;44.994;1.796;2023-02-28T00:56:16;-0.60;81.40
45283;DHT22;31023;44.994;1.796;2023-02-28T00:58:42;-0.50;81.30
45283;DHT22;31023;44.994;1.796;2023-02-28T01:01:08;-0.60;81.20
45283;DHT22;31023;44.994;1.796;2023-02-28T01:03:34;-0.50;81.40
45283;DHT22;31023;44.994;1.796;2023-02-28T01:06:00;-0.70;81.40
45283;DHT22;31023;44.994;1.796;2023-02-28T01:08:26;-0.60;81.50
45283;DHT22;31023;44.994;1.796;2023-02-28T01:10:52;-0.60;81.60
45283;DHT22;31023;44.994;1.796;2023-02-28T01:13:19;-0.60;81.70
45283;DHT22;31023;44.994;1.796;2023-02-28T01:15:53;-0.50;81.40
45283;DHT22;31023;44.994;1.796;2023-02-28T01:18:21;-0.50;81.10
45283;DHT22;31023;44.994;1.796;2023-02-28T01:20:47;-0.60;81.40
45283;DHT22;31023;44.994;1.796;2023-02-28T01:23:13;-0.60;81.60
45283;DHT22;31023;44.994;1.796;2023-02-28T01:25:39;-0.60;81.60
45283;DHT22;31023;44.994;1.796;2023-02-28T01:28:05;-0.50;81.30
45283;DHT22;31023;44.994;1.796;2023-02-28T01:30:31;-0.60;81.50
45283;DHT22;31023;44.994;1.796;2023-02-28T01:32:57;-0.60;81.70
45283;DHT22;31023;44.994;1.796;2023-02-28T01:35:23;-0.80;82.20
45283;DHT22;31023;44.994;1.796;2023-02-28T01:37:49;-0.90;83.10
45283;DHT22;31023;44.994;1.796;2023-02-28T01:40:15;-0.80;83.20
45283;DHT22;31023;44.994;1.796;2023-02-28T01:42:41;-0.90;83.40
45283;DHT22;31023;44.994;1.796;2023-02-28T01:47:41;-0.90;83.60
45283;DHT22;31023;44.994;1.796;2023-02-28T01:50:13;-1.00;84.20
45283;DHT22;31023;44.994;1.796;2023-02-28T01:52:40;-0.80;83.80
45283;DHT22;31023;44.994;1.796;2023-02-28T01:55:07;-0.90;83.90
45283;DHT22;31023;44.994;1.796;2023-02-28T01:57:41;-0.90;83.90
45283;DHT22;31023;44.994;1.796;2023-02-28T02:00:13;-0.90;83.60
45283;DHT22;31023;44.994;1.796;2023-02-28T02:02:46;-0.90;83.40
45283;DHT22;31023;44.994;1.796;2023-02-28T02:05:16;-1.00;83.40
45283;DHT22;31023;44.994;1.796;2023-02-28T02:07:45;-1.10;83.40
45283;DHT22;31023;44.994;1.796;2023-02-28T02:10:17;-1.10;84.30
45283;DHT22;31023;44.994;1.796;2023-02-28T02:15:34;-1.10;84.90
45283;DHT22;31023;44.994;1.796;2023-02-28T02:18:10;-1.10;85.10
45283;DHT22;31023;44.994;1.796;2023-02-28T02:21:15;-1.10;85.30
45283;DHT22;31023;44.994;1.796;2023-02-28T02:32:16;-1.00;85.10
45283;DHT22;31023;44.994;1.796;2023-02-28T02:35:00;-0.90;85.60
45283;DHT22;31023;44.994;1.796;2023-02-28T02:37:50;-0.90;85.40
45283;DHT22;31023;44.994;1.796;2023-02-28T02:40:20;-0.90;85.50
45283;DHT22;31023;44.994;1.796;2023-02-28T02:42:51;-1.10;85.60
45283;DHT22;31023;44.994;1.796;2023-02-28T02:47:43;-1.10;85.90
45283;DHT22;31023;44.994;1.796;2023-02-28T02:50:14;-1.10;86.10
45283;DHT22;31023;44.994;1.796;2023-02-28T02:52:48;-1.10;86.00
45283;DHT22;31023;44.994;1.796;2023-02-28T02:55:16;-1.20;86.60
45283;DHT22;31023;44.994;1.796;2023-02-28T02:57:52;-1.20;87.10
45283;DHT22;31023;44.994;1.796;2023-02-28T03:00:21;-1.30;87.20
45283;DHT22;31023;44.994;1.796;2023-02-28T03:02:49;-1.30;87.10
45283;DHT22;31023;44.994;1.796;2023-02-28T03:05:27;-1.10;86.60
45283;DHT22;31023;44.994;1.796;2023-02-28T03:07:54;-1.10;86.60
45283;DHT22;31023;44.994;1.796;2023-02-28T03:10:55;-1.20;87.20
45283;DHT22;31023;44.994;1.796;2023-02-28T03:24:08;-1.30;87.70
45283;DHT22;31023;44.994;1.796;2023-02-28T03:26:40;-1.30;88.20
45283;DHT22;31023;44.994;1.796;2023-02-28T03:29:37;-1.40;88.30
45283;DHT22;31023;44.994;1.796;2023-02-28T03:32:24;-1.40;88.50
45283;DHT22;31023;44.994;1.796;2023-02-28T03:35:03;-1.40;89.20
45283;DHT22;31023;44.994;1.796;2023-02-28T03:37:34;-1.50;88.90
45283;DHT22;31023;44.994;1.796;2023-02-28T03:40:06;-1.50;89.10
45283;DHT22;31023;44.994;1.796;2023-02-28T03:42:38;-1.50;88.90
45283;DHT22;31023;44.994;1.796;2023-02-28T03:45:18;-1.50;88.90
45283;DHT22;31023;44.994;1.796;2023-02-28T03:47:46;-1.50;88.90
45283;DHT22;31023;44.994;1.796;2023-02-28T03:52:50;-1.50;88.70
45283;DHT22;31023;44.994;1.796;2023-02-28T03:55:17;-1.50;89.60
45283;DHT22;31023;44.994;1.796;2023-02-28T03:58:07;-1.60;90.00
45283;DHT22;31023;44.994;1.796;2023-02-28T04:00:45;-1.60;90.10
45283;DHT22;31023;44.994;1.796;2023-02-28T04:03:12;-1.60;90.20
45283;DHT22;31023;44.994;1.796;2023-02-28T04:05:52;-1.70;90.20
45283;DHT22;31023;44.994;1.796;2023-02-28T04:08:19;-1.70;90.40
45283;DHT22;31023;44.994;1.796;2023-02-28T04:10:50;-1.80;90.70
45283;DHT22;31023;44.994;1.796;2023-02-28T04:13:17;-1.80;90.70
45283;DHT22;31023;44.994;1.796;2023-02-28T04:15:42;-1.80;90.80
45283;DHT22;31023;44.994;1.796;2023-02-28T04:18:08;-1.80;90.70
45283;DHT22;31023;44.994;1.796;2023-02-28T04:20:34;-1.80;90.60
45283;DHT22;31023;44.994;1.796;2023-02-28T04:22:59;-1.90;90.80
45283;DHT22;31023;44.994;1.796;2023-02-28T04:25:25;-1.90;91.00
45283;DHT22;31023;44.994;1.796;2023-02-28T04:27:51;-1.90;91.00
45283;DHT22;31023;44.994;1.796;2023-02-28T04:30:17;-1.90;91.20
45283;DHT22;31023;44.994;1.796;2023-02-28T04:32:42;-1.90;91.20
45283;DHT22;31023;44.994;1.796;2023-02-28T04:35:08;-1.90;91.00
45283;DHT22;31023;44.994;1.796;2023-02-28T04:37:34;-1.90;91.00
45283;DHT22;31023;44.994;1.796;2023-02-28T04:40:03;-1.90;91.10
45283;DHT22;31023;44.994;1.796;2023-02-28T04:42:29;-1.90;91.20
45283;DHT22;31023;44.994;1.796;2023-02-28T04:45:01;-1.80;91.10
45283;DHT22;31023;44.994;1.796;2023-02-28T04:47:28;-1.80;90.90
45283;DHT22;31023;44.994;1.796;2023-02-28T04:49:53;-1.90;90.90
45283;DHT22;31023;44.994;1.796;2023-02-28T04:52:19;-1.90;91.00
45283;DHT22;31023;44.994;1.796;2023-02-28T04:54:45;-1.90;91.20
45283;DHT22;31023;44.994;1.796;2023-02-28T04:57:10;-2.00;91.20
45283;DHT22;31023;44.994;1.796;2023-02-28T04:59:36;-1.90;91.30
45283;DHT22;31023;44.994;1.796;2023-02-28T05:02:02;-2.00;91.20
45283;DHT22;31023;44.994;1.796;2023-02-28T05:04:33;-2.00;91.40
45283;DHT22;31023;44.994;1.796;2023-02-28T05:07:00;-2.00;91.40
45283;DHT22;31023;44.994;1.796;2023-02-28T05:09:26;-2.00;91.30
45283;DHT22;31023;44.994;1.796;2023-02-28T05:11:52;-2.10;91.40
45283;DHT22;31023;44.994;1.796;2023-02-28T05:14:18;-2.10;91.70
45283;DHT22;31023;44.994;1.796;2023-02-28T05:16:43;-2.10;91.80
45283;DHT22;31023;44.994;1.796;2023-02-28T05:19:09;-2.10;91.90
45283;DHT22;31023;44.994;1.796;2023-02-28T05:21:37;-2.20;92.20
45283;DHT22;31023;44.994;1.796;2023-02-28T05:24:11;-2.20;92.40
45283;DHT22;31023;44.994;1.796;2023-02-28T05:26:39;-2.20;92.40
45283;DHT22;31023;44.994;1.796;2023-02-28T05:29:05;-2.20;92.50
45283;DHT22;31023;44.994;1.796;2023-02-28T05:31:32;-2.20;92.40
45283;DHT22;31023;44.994;1.796;2023-02-28T05:33:57;-2.30;92.60
45283;DHT22;31023;44.994;1.796;2023-02-28T05:36:24;-2.20;92.40
45283;DHT22;31023;44.994;1.796;2023-02-28T05:38:50;-2.20;92.40
45283;DHT22;31023;44.994;1.796;2023-02-28T05:41:17;-2.10;92.30
45283;DHT22;31023;44.994;1.796;2023-02-28T05:43:44;-2.20;92.10
45283;DHT22;31023;44.994;1.796;2023-02-28T05:46:11;-2.20;92.20
45283;DHT22;31023;44.994;1.796;2023-02-28T05:48:38;-2.30;92.30
45283;DHT22;31023;44.994;1.796;2023-02-28T05:51:05;-2.30;92.40
45283;DHT22;31023;44.994;1.796;2023-02-28T05:53:32;-2.50;92.50
45283;DHT22;31023;44.994;1.796;2023-02-28T05:55:58;-2.40;92.60
45283;DHT22;31023;44.994;1.796;2023-02-28T05:58:24;-2.40;92.50
45283;DHT22;31023;44.994;1.796;2023-02-28T06:00:56;-2.30;92.50
45283;DHT22;31023;44.994;1.796;2023-02-28T06:03:22;-2.30;92.70
45283;DHT22;31023;44.994;1.796;2023-02-28T06:05:48;-2.30;92.50
45283;DHT22;31023;44.994;1.796;2023-02-28T06:08:14;-2.50;92.70
45283;DHT22;31023;44.994;1.796;2023-02-28T06:10:39;-2.40;92.60
45283;DHT22;31023;44.994;1.796;2023-02-28T06:13:05;-2.50;92.90
45283;DHT22;31023;44.994;1.796;2023-02-28T06:15:31;-2.50;92.90
45283;DHT22;31023;44.994;1.796;2023-02-28T06:17:58;-2.50;93.00
45283;DHT22;31023;44.994;1.796;2023-02-28T06:20:25;-2.50;93.10
45283;DHT22;31023;44.994;1.796;2023-02-28T06:22:55;-2.60;92.90
45283;DHT22;31023;44.994;1.796;2023-02-28T06:25:21;-2.60;93.10
45283;DHT22;31023;44.994;1.796;2023-02-28T06:27:47;-2.50;93.30
45283;DHT22;31023;44.994;1.796;2023-02-28T06:30:14;-2.50;93.00
45283;DHT22;31023;44.994;1.796;2023-02-28T06:32:39;-2.50;92.90
45283;DHT22;31023;44.994;1.796;2023-02-28T06:35:05;-2.50;92.80
45283;DHT22;31023;44.994;1.796;2023-02-28T06:37:32;-2.50;92.90
45283;DHT22;31023;44.994;1.796;2023-02-28T06:39:58;-2.50;93.10
45283;DHT22;31023;44.994;1.796;2023-02-28T06:42:24;-2.40;93.10
45283;DHT22;31023;44.994;1.796;2023-02-28T06:44:54;-2.40;92.90
45283;DHT22;31023;44.994;1.796;2023-02-28T06:47:20;-2.40;93.10
45283;DHT22;31023;44.994;1.796;2023-02-28T06:49:46;-2.10;92.90
45283;DHT22;31023;44.994;1.796;2023-02-28T06:52:12;-1.90;92.40
45283;DHT22;31023;44.994;1.796;2023-02-28T06:54:38;-1.40;91.70
45283;DHT22;31023;44.994;1.796;2023-02-28T06:57:03;-1.20;91.50
45283;DHT22;31023;44.994;1.796;2023-02-28T06:59:30;-0.40;89.80
45283;DHT22;31023;44.994;1.796;2023-02-28T07:01:56;0.00;87.40
45283;DHT22;31023;44.994;1.796;2023-02-28T07:04:22;0.30;86.20
45283;DHT22;31023;44.994;1.796;2023-02-28T07:06:48;0.50;85.10
45283;DHT22;31023;44.994;1.796;2023-02-28T07:09:14;1.00;83.60
45283;DHT22;31023;44.994;1.796;2023-02-28T07:11:40;1.30;82.00
45283;DHT22;31023;44.994;1.796;2023-02-28T07:14:06;1.50;80.60
45283;DHT22;31023;44.994;1.796;2023-02-28T07:16:33;1.60;80.60
45283;DHT22;31023;44.994;1.796;2023-02-28T07:18:58;1.70;80.90
45283;DHT22;31023;44.994;1.796;2023-02-28T07:21:24;1.90;79.40
45283;DHT22;31023;44.994;1.796;2023-02-28T07:23:50;1.90;79.30
45283;DHT22;31023;44.994;1.796;2023-02-28T07:26:18;2.20;79.80
45283;DHT22;31023;44.994;1.796;2023-02-28T07:28:45;2.90;77.60
45283;DHT22;31023;44.994;1.796;2023-02-28T07:31:12;3.10;77.60
45283;DHT22;31023;44.994;1.796;2023-02-28T07:33:43;3.40;76.70
45283;DHT22;31023;44.994;1.796;2023-02-28T07:36:14;3.60;75.10
45283;DHT22;31023;44.994;1.796;2023-02-28T07:38:45;4.00;74.20
45283;DHT22;31023;44.994;1.796;2023-02-28T07:41:14;4.00;74.40
45283;DHT22;31023;44.994;1.796;2023-02-28T07:43:40;4.10;74.40
45283;DHT22;31023;44.994;1.796;2023-02-28T07:46:12;4.40;73.70
45283;DHT22;31023;44.994;1.796;2023-02-28T07:48:38;4.50;73.90
45283;DHT22;31023;44.994;1.796;2023-02-28T07:51:04;4.50;73.40
45283;DHT22;31023;44.994;1.796;2023-02-28T07:53:30;4.50;74.50
45283;DHT22;31023;44.994;1.796;2023-02-28T07:56:00;4.50;73.40
45283;DHT22;31023;44.994;1.796;2023-02-28T07:58:27;4.70;73.80
45283;DHT22;31023;44.994;1.796;2023-02-28T08:00:53;4.80;73.40
45283;DHT22;31023;44.994;1.796;2023-02-28T08:03:20;5.00;73.70
45283;DHT22;31023;44.994;1.796;2023-02-28T08:05:46;5.10;74.00
45283;DHT22;31023;44.994;1.796;2023-02-28T08:08:13;5.30;72.80
45283;DHT22;31023;44.994;1.796;2023-02-28T08:10:39;5.50;71.00
45283;DHT22;31023;44.994;1.796;2023-02-28T08:13:04;5.70;71.50
45283;DHT22;31023;44.994;1.796;2023-02-28T08:15:30;5.60;70.00
45283;DHT22;31023;44.994;1.796;2023-02-28T08:17:56;5.90;69.30
45283;DHT22;31023;44.994;1.796;2023-02-28T08:20:23;5.70;67.50
45283;DHT22;31023;44.994;1.796;2023-02-28T08:22:49;5.30;67.70
45283;DHT22;31023;44.994;1.796;2023-02-28T08:25:15;5.30;66.10
45283;DHT22;31023;44.994;1.796;2023-02-28T08:27:41;5.60;67.10
45283;DHT22;31023;44.994;1.796;2023-02-28T08:30:07;6.50;65.70
45283;DHT22;31023;44.994;1.796;2023-02-28T08:32:33;6.30;65.20
45283;DHT22;31023;44.994;1.796;2023-02-28T08:34:59;6.80;66.60
45283;DHT22;31023;44.994;1.796;2023-02-28T08:37:25;6.80;63.90
45283;DHT22;31023;44.994;1.796;2023-02-28T08:39:51;6.90;65.20
45283;DHT22;31023;44.994;1.796;2023-02-28T08:42:16;7.00;64.90
45283;DHT22;31023;44.994;1.796;2023-02-28T08:44:42;7.50;64.10
45283;DHT22;31023;44.994;1.796;2023-02-28T08:47:08;7.30;61.70
45283;DHT22;31023;44.994;1.796;2023-02-28T08:49:33;7.20;61.10
45283;DHT22;31023;44.994;1.796;2023-02-28T08:51:59;7.20;60.70
45283;DHT22;31023;44.994;1.796;2023-02-28T08:54:25;7.30;61.60
45283;DHT22;31023;44.994;1.796;2023-02-28T08:56:51;7.10;61.10
45283;DHT22;31023;44.994;1.796;2023-02-28T08:59:16;7.20;61.90
45283;DHT22;31023;44.994;1.796;2023-02-28T09:01:42;6.90;61.10
45283;DHT22;31023;44.994;1.796;2023-02-28T09:04:09;6.70;61.10
45283;DHT22;31023;44.994;1.796;2023-02-28T09:06:36;7.10;61.80
45283;DHT22;31023;44.994;1.796;2023-02-28T09:09:01;7.10;61.40
45283;DHT22;31023;44.994;1.796;2023-02-28T09:11:29;7.00;60.00
45283;DHT22;31023;44.994;1.796;2023-02-28T09:13:55;7.20;61.20
45283;DHT22;31023;44.994;1.796;2023-02-28T09:16:21;8.20;60.50
45283;DHT22;31023;44.994;1.796;2023-02-28T09:18:47;7.40;60.00
45283;DHT22;31023;44.994;1.796;2023-02-28T09:21:15;7.60;61.00
45283;DHT22;31023;44.994;1.796;2023-02-28T09:23:42;7.90;62.80
45283;DHT22;31023;44.994;1.796;2023-02-28T09:26:14;7.50;59.70
45283;DHT22;31023;44.994;1.796;2023-02-28T09:28:39;8.20;60.00
45283;DHT22;31023;44.994;1.796;2023-02-28T09:31:05;7.90;59.70
45283;DHT22;31023;44.994;1.796;2023-02-28T09:33:31;7.80;60.20
45283;DHT22;31023;44.994;1.796;2023-02-28T09:35:59;7.50;59.40
45283;DHT22;31023;44.994;1.796;2023-02-28T09:38:26;8.10;59.60
45283;DHT22;31023;44.994;1.796;2023-02-28T09:40:56;8.50;59.30
45283;DHT22;31023;44.994;1.796;2023-02-28T09:43:25;8.10;59.00
45283;DHT22;31023;44.994;1.796;2023-02-28T09:48:45;9.00;57.00
45283;DHT22;31023;44.994;1.796;2023-02-28T09:53:53;7.90;57.90
45283;DHT22;31023;44.994;1.796;2023-02-28T09:56:33;7.70;59.60
45283;DHT22;31023;44.994;1.796;2023-02-28T09:59:10;7.40;59.60
45283;DHT22;31023;44.994;1.796;2023-02-28T10:09:56;5.50;62.80
45283;DHT22;31023;44.994;1.796;2023-02-28T10:12:25;5.60;63.30
45283;DHT22;31023;44.994;1.796;2023-02-28T10:14:52;5.80;62.70
45283;DHT22;31023;44.994;1.796;2023-02-28T10:17:23;5.70;63.50
45283;DHT22;31023;44.994;1.796;2023-02-28T10:20:01;5.40;63.10
45283;DHT22;31023;44.994;1.796;2023-02-28T10:25:34;5.50;62.40
45283;DHT22;31023;44.994;1.796;2023-02-28T10:28:10;5.70;62.00
45283;DHT22;31023;44.994;1.796;2023-02-28T10:30:42;5.90;61.70
45283;DHT22;31023;44.994;1.796;2023-02-28T10:33:19;5.50;61.60
45283;DHT22;31023;44.994;1.796;2023-02-28T10:35:46;5.70;62.20
45283;DHT22;31023;44.994;1.796;2023-02-28T10:38:24;5.50;62.10
45283;DHT22;31023;44.994;1.796;2023-02-28T10:40:51;5.90;62.40
45283;DHT22;31023;44.994;1.796;2023-02-28T10:46:15;6.10;61.60
45283;DHT22;31023;44.994;1.796;2023-02-28T10:49:03;5.90;61.50
45283;DHT22;31023;44.994;1.796;2023-02-28T10:51:39;5.70;61.50
45283;DHT22;31023;44.994;1.796;2023-02-28T10:54:05;5.90;61.20
45283;DHT22;31023;44.994;1.796;2023-02-28T10:56:32;5.40;61.90
45283;DHT22;31023;44.994;1.796;2023-02-28T11:01:51;6.10;61.10
45283;DHT22;31023;44.994;1.796;2023-02-28T11:04:19;5.80;60.20
45283;DHT22;31023;44.994;1.796;2023-02-28T11:06:46;5.90;60.00
45283;DHT22;31023;44.994;1.796;2023-02-28T11:09:24;5.90;59.60
45283;DHT22;31023;44.994;1.796;2023-02-28T11:11:50;6.80;60.50
45283;DHT22;31023;44.994;1.796;2023-02-28T11:14:30;6.30;58.60
45283;DHT22;31023;44.994;1.796;2023-02-28T11:17:14;6.60;59.20
45283;DHT22;31023;44.994;1.796;2023-02-28T11:19:46;7.20;57.80
45283;DHT22;31023;44.994;1.796;2023-02-28T11:22:21;7.40;58.50
45283;DHT22;31023;44.994;1.796;2023-02-28T11:24:50;7.40;58.80
45283;DHT22;31023;44.994;1.796;2023-02-28T11:27:46;7.40;59.80
45283;DHT22;31023;44.994;1.796;2023-02-28T11:30:34;6.90;58.30
45283;DHT22;31023;44.994;1.796;2023-02-28T11:33:18;6.60;59.40
45283;DHT22;31023;44.994;1.796;2023-02-28T11:35:45;7.10;60.70
45283;DHT22;31023;44.994;1.796;2023-02-28T11:38:13;7.30;59.30
45283;DHT22;31023;44.994;1.796;2023-02-28T11:51:53;7.70;59.30
45283;DHT22;31023;44.994;1.796;2023-02-28T11:54:47;7.40;56.40
45283;DHT22;31023;44.994;1.796;2023-02-28T12:05:29;7.10;57.60
45283;DHT22;31023;44.994;1.796;2023-02-28T12:13:33;8.10;56.80
45283;DHT22;31023;44.994;1.796;2023-02-28T12:19:19;7.10;57.30
45283;DHT22;31023;44.994;1.796;2023-02-28T12:21:53;8.00;56.60
45283;DHT22;31023;44.994;1.796;2023-02-28T12:24:53;7.60;55.10
45283;DHT22;31023;44.994;1.796;2023-02-28T12:27:23;7.60;56.50
45283;DHT22;31023;44.994;1.796;2023-02-28T12:29:56;7.60;56.00
45283;DHT22;31023;44.994;1.796;2023-02-28T12:32:31;7.60;57.30
45283;DHT22;31023;44.994;1.796;2023-02-28T12:43:39;7.90;55.00
45283;DHT22;31023;44.994;1.796;2023-02-28T12:48:51;7.10;55.60
45283;DHT22;31023;44.994;1.796;2023-02-28T12:51:18;6.50;56.20
45283;DHT22;31023;44.994;1.796;2023-02-28T12:54:16;6.70;56.00
45283;DHT22;31023;44.994;1.796;2023-02-28T13:10:24;6.30;55.60
45283;DHT22;31023;44.994;1.796;2023-02-28T13:12:51;6.70;55.90
45283;DHT22;31023;44.994;1.796;2023-02-28T13:15:19;7.10;56.70
45283;DHT22;31023;44.994;1.796;2023-02-28T13:17:56;6.90;55.30
45283;DHT22;31023;44.994;1.796;2023-02-28T13:20:25;6.80;55.10
45283;DHT22;31023;44.994;1.796;2023-02-28T13:22:53;6.80;56.20
45283;DHT22;31023;44.994;1.796;2023-02-28T13:27:51;7.60;54.10
45283;DHT22;31023;44.994;1.796;2023-02-28T13:35:46;7.00;54.60
45283;DHT22;31023;44.994;1.796;2023-02-28T13:38:17;7.30;55.80
45283;DHT22;31023;44.994;1.796;2023-02-28T13:40:46;7.00;57.60
45283;DHT22;31023;44.994;1.796;2023-02-28T13:43:16;7.00;56.80
45283;DHT22;31023;44.994;1.796;2023-02-28T13:46:07;7.00;58.00
45283;DHT22;31023;44.994;1.796;2023-02-28T13:48:34;7.10;58.60
45283;DHT22;31023;44.994;1.796;2023-02-28T13:50:59;7.30;59.00
45283;DHT22;31023;44.994;1.796;2023-02-28T13:53:51;7.40;58.90
45283;DHT22;31023;44.994;1.796;2023-02-28T13:56:31;7.30;58.20
45283;DHT22;31023;44.994;1.796;2023-02-28T14:01:55;7.10;59.40
45283;DHT22;31023;44.994;1.796;2023-02-28T14:07:07;6.80;60.50
45283;DHT22;31023;44.994;1.796;2023-02-28T14:09:41;6.40;59.60
45283;DHT22;31023;44.994;1.796;2023-02-28T14:18:05;6.30;61.40
45283;DHT22;31023;44.994;1.796;2023-02-28T14:20:36;6.10;63.20
45283;DHT22;31023;44.994;1.796;2023-02-28T14:23:25;6.20;63.40
45283;DHT22;31023;44.994;1.796;2023-02-28T14:25:59;6.20;63.30
45283;DHT22;31023;44.994;1.796;2023-02-28T14:31:15;6.10;59.20
45283;DHT22;31023;44.994;1.796;2023-02-28T14:33:54;6.20;60.30
45283;DHT22;31023;44.994;1.796;2023-02-28T14:36:35;6.10;60.50
45283;DHT22;31023;44.994;1.796;2023-02-28T14:41:39;6.30;62.50
45283;DHT22;31023;44.994;1.796;2023-02-28T14:46:41;5.80;62.70
45283;DHT22;31023;44.994;1.796;2023-02-28T14:49:58;6.00;63.00
45283;DHT22;31023;44.994;1.796;2023-02-28T14:52:21;6.10;62.90
45283;DHT22;31023;44.994;1.796;2023-02-28T14:55:15;6.00;64.30
45283;DHT22;31023;44.994;1.796;2023-02-28T14:58:03;5.80;64.30
45283;DHT22;31023;44.994;1.796;2023-02-28T15:00:33;5.90;64.60
45283;DHT22;31023;44.994;1.796;2023-02-28T15:03:01;5.80;64.00
45283;DHT22;31023;44.994;1.796;2023-02-28T15:05:37;5.50;63.80
45283;DHT22;31023;44.994;1.796;2023-02-28T15:08:15;5.50;64.00
45283;DHT22;31023;44.994;1.796;2023-02-28T15:13:40;5.60;63.40
45283;DHT22;31023;44.994;1.796;2023-02-28T15:16:12;5.70;63.40
45283;DHT22;31023;44.994;1.796;2023-02-28T15:21:28;5.60;62.80
45283;DHT22;31023;44.994;1.796;2023-02-28T15:24:04;5.50;63.40
45283;DHT22;31023;44.994;1.796;2023-02-28T15:26:39;5.70;64.10
45283;DHT22;31023;44.994;1.796;2023-02-28T15:29:07;5.60;63.60
45283;DHT22;31023;44.994;1.796;2023-02-28T15:31:41;5.50;63.90
45283;DHT22;31023;44.994;1.796;2023-02-28T15:34:21;5.50;63.90
45283;DHT22;31023;44.994;1.796;2023-02-28T15:36:47;5.50;63.20
45283;DHT22;31023;44.994;1.796;2023-02-28T15:39:25;5.40;63.40
45283;DHT22;31023;44.994;1.796;2023-02-28T15:41:52;5.30;64.40
45283;DHT22;31023;44.994;1.796;2023-02-28T15:44:35;5.50;64.70
45283;DHT22;31023;44.994;1.796;2023-02-28T15:47:16;5.30;64.90
45283;DHT22;31023;44.994;1.796;2023-02-28T15:50:00;5.20;65.00
45283;DHT22;31023;44.994;1.796;2023-02-28T15:52:37;5.30;66.00
45283;DHT22;31023;44.994;1.796;2023-02-28T15:55:15;5.20;66.10
45283;DHT22;31023;44.994;1.796;2023-02-28T15:57:44;5.30;64.80
45283;DHT22;31023;44.994;1.796;2023-02-28T16:00:15;5.30;64.60
45283;DHT22;31023;44.994;1.796;2023-02-28T16:02:41;5.10;65.20
45283;DHT22;31023;44.994;1.796;2023-02-28T16:07:40;5.30;66.00
45283;DHT22;31023;44.994;1.796;2023-02-28T16:10:07;4.90;64.30
45283;DHT22;31023;44.994;1.796;2023-02-28T16:12:34;5.00;63.30
45283;DHT22;31023;44.994;1.796;2023-02-28T16:15:02;4.90;62.70
45283;DHT22;31023;44.994;1.796;2023-02-28T16:17:33;5.00;62.50
45283;DHT22;31023;44.994;1.796;2023-02-28T16:19:59;4.80;62.00
45283;DHT22;31023;44.994;1.796;2023-02-28T16:22:25;4.70;61.40
45283;DHT22;31023;44.994;1.796;2023-02-28T16:24:52;4.80;61.80
45283;DHT22;31023;44.994;1.796;2023-02-28T16:27:28;4.80;61.20
45283;DHT22;31023;44.994;1.796;2023-02-28T16:29:55;4.40;60.60
45283;DHT22;31023;44.994;1.796;2023-02-28T16:32:21;4.60;61.40
45283;DHT22;31023;44.994;1.796;2023-02-28T16:34:47;4.80;61.30
45283;DHT22;31023;44.994;1.796;2023-02-28T16:37:17;4.70;61.20
45283;DHT22;31023;44.994;1.796;2023-02-28T16:39:43;4.70;61.70
45283;DHT22;31023;44.994;1.796;2023-02-28T16:44:47;4.40;60.60
45283;DHT22;31023;44.994;1.796;2023-02-28T16:47:12;4.30;60.60
45283;DHT22;31023;44.994;1.796;2023-02-28T16:49:38;4.50;61.60
45283;DHT22;31023;44.994;1.796;2023-02-28T16:52:07;4.40;61.80
45283;DHT22;31023;44.994;1.796;2023-02-28T16:54:33;4.20;61.60
45283;DHT22;31023;44.994;1.796;2023-02-28T16:56:59;4.40;61.60
45283;DHT22;31023;44.994;1.796;2023-02-28T16:59:26;4.20;60.80
45283;DHT22;31023;44.994;1.796;2023-02-28T17:01:53;4.30;61.60
45283;DHT22;31023;44.994;1.796;2023-02-28T17:04:19;4.20;61.80
45283;DHT22;31023;44.994;1.796;2023-02-28T17:06:45;4.30;61.90
45283;DHT22;31023;44.994;1.796;2023-02-28T17:09:22;4.20;61.20
45283;DHT22;31023;44.994;1.796;2023-02-28T17:11:48;4.10;62.10
45283;DHT22;31023;44.994;1.796;2023-02-28T17:14:14;4.00;61.70
45283;DHT22;31023;44.994;1.796;2023-02-28T17:16:41;4.00;62.10
45283;DHT22;31023;44.994;1.796;2023-02-28T17:19:13;3.90;62.30
45283;DHT22;31023;44.994;1.796;2023-02-28T17:21:39;3.90;62.00
45283;DHT22;31023;44.994;1.796;2023-02-28T17:24:07;3.70;62.10
45283;DHT22;31023;44.994;1.796;2023-02-28T17:26:33;3.80;62.40
45283;DHT22;31023;44.994;1.796;2023-02-28T17:28:59;3.70;62.40
45283;DHT22;31023;44.994;1.796;2023-02-28T17:31:26;3.70;62.30
45283;DHT22;31023;44.994;1.796;2023-02-28T17:33:53;3.70;63.30
45283;DHT22;31023;44.994;1.796;2023-02-28T17:36:25;3.60;62.70
45283;DHT22;31023;44.994;1.796;2023-02-28T17:38:52;3.50;62.70
45283;DHT22;31023;44.994;1.796;2023-02-28T17:41:18;3.40;63.40
45283;DHT22;31023;44.994;1.796;2023-02-28T17:43:44;3.40;63.30
45283;DHT22;31023;44.994;1.796;2023-02-28T17:46:16;3.40;63.50
45283;DHT22;31023;44.994;1.796;2023-02-28T17:48:43;3.40;63.30
45283;DHT22;31023;44.994;1.796;2023-02-28T17:51:11;3.30;63.50
45283;DHT22;31023;44.994;1.796;2023-02-28T17:53:37;3.30;63.80
45283;DHT22;31023;44.994;1.796;2023-02-28T17:56:03;3.20;62.80
45283;DHT22;31023;44.994;1.796;2023-02-28T17:58:29;3.20;63.80
45283;DHT22;31023;44.994;1.796;2023-02-28T18:00:56;3.20;63.00
45283;DHT22;31023;44.994;1.796;2023-02-28T18:03:22;3.20;62.90
45283;DHT22;31023;44.994;1.796;2023-02-28T18:05:49;3.20;63.30
45283;DHT22;31023;44.994;1.796;2023-02-28T18:08:16;3.20;64.00
45283;DHT22;31023;44.994;1.796;2023-02-28T18:10:41;3.10;63.00
45283;DHT22;31023;44.994;1.796;2023-02-28T18:13:07;3.20;63.10
45283;DHT22;31023;44.994;1.796;2023-02-28T18:15:33;3.20;63.20
45283;DHT22;31023;44.994;1.796;2023-02-28T18:17:59;3.10;62.80